createdAt,value
2023-02-19T00:02:59.013Z,11.49
2023-02-19T00:07:00.631Z,11.49
2023-02-19T00:11:12.151Z,11.48
2023-02-19T00:15:13.813Z,11.46
2023-02-19T00:19:17.615Z,11.48
2023-02-19T00:23:19.191Z,11.42
2023-02-19T00:27:20.880Z,11.44
2023-02-19T00:31:30.393Z,11.39
2023-02-19T00:35:35.862Z,11.42
2023-02-19T00:39:37.429Z,11.42
2023-02-19T00:43:38.988Z,11.39
2023-02-19T00:47:40.539Z,11.38
2023-02-19T00:51:42.144Z,11.36
2023-02-19T00:55:43.887Z,11.38
2023-02-19T00:59:45.387Z,11.38
2023-02-19T01:03:47.480Z,11.38
2023-02-19T01:07:49.020Z,11.39
2023-02-19T01:11:50.580Z,11.33
2023-02-19T01:15:52.468Z,11.31
2023-02-19T01:19:54.054Z,11.27
2023-02-19T01:23:56.665Z,11.17
2023-02-19T01:28:00.251Z,11.12
2023-02-19T01:32:01.862Z,11.01
2023-02-19T01:36:04.867Z,11.02
2023-02-19T01:40:07.001Z,10.98
2023-02-19T01:44:12.093Z,10.98
2023-02-19T01:48:21.079Z,10.91
2023-02-19T01:52:28.189Z,10.90
2023-02-19T01:56:32.440Z,10.87
2023-02-19T02:00:34.439Z,10.83
2023-02-19T02:04:36.353Z,10.81
2023-02-19T02:08:56.609Z,10.78
2023-02-19T02:12:58.950Z,10.76
2023-02-19T02:17:25.276Z,10.72
2023-02-19T02:21:41.528Z,10.72
2023-02-19T02:25:59.192Z,10.72
2023-02-19T02:30:16.058Z,10.72
2023-02-19T02:34:29.881Z,10.75
2023-02-19T02:38:34.424Z,10.70
2023-02-19T02:42:39.548Z,10.70
2023-02-19T02:46:46.628Z,10.69
2023-02-19T02:51:20.838Z,10.69
2023-02-19T02:55:34.845Z,10.69
2023-02-19T02:59:39.057Z,10.63
2023-02-19T03:03:44.941Z,10.66
2023-02-19T03:08:01.887Z,10.68
2023-02-19T03:12:24.186Z,10.69
2023-02-19T03:16:50.398Z,10.63
2023-02-19T03:20:57.166Z,10.65
2023-02-19T03:25:28.578Z,10.65
2023-02-19T03:29:33.015Z,10.65
2023-02-19T03:33:41.436Z,10.60
2023-02-19T03:37:54.494Z,10.62
2023-02-19T03:42:02.395Z,10.60
2023-02-19T03:46:13.471Z,10.58
2023-02-19T03:50:21.557Z,10.60
2023-02-19T03:54:38.087Z,10.57
2023-02-19T03:58:58.783Z,10.51
2023-02-19T04:03:07.758Z,10.47
2023-02-19T04:07:10.779Z,10.51
2023-02-19T04:11:16.433Z,10.49
2023-02-19T04:15:23.713Z,10.42
2023-02-19T04:19:27.261Z,10.43
2023-02-19T04:23:31.592Z,10.42
2023-02-19T04:27:37.549Z,10.43
2023-02-19T04:31:39.123Z,10.43
2023-02-19T04:35:40.696Z,10.44
2023-02-19T04:39:42.259Z,10.42
2023-02-19T04:43:43.865Z,10.39
2023-02-19T04:47:45.493Z,10.36
2023-02-19T04:51:47.016Z,10.38
2023-02-19T04:55:48.781Z,10.42
2023-02-19T04:59:50.360Z,10.38
2023-02-19T05:03:52.298Z,10.42
2023-02-19T05:07:54.245Z,10.39
2023-02-19T05:11:55.775Z,10.38
2023-02-19T05:16:06.085Z,10.38
2023-02-19T05:20:08.531Z,10.39
2023-02-19T05:24:10.080Z,10.36
2023-02-19T05:28:18.292Z,10.38
2023-02-19T05:32:19.840Z,10.31
2023-02-19T05:36:24.239Z,10.32
2023-02-19T05:40:25.766Z,10.32
2023-02-19T05:44:27.401Z,10.31
2023-02-19T05:48:28.976Z,10.34
2023-02-19T05:52:30.499Z,10.31
2023-02-19T05:56:34.906Z,10.32
2023-02-19T06:00:36.452Z,10.31
2023-02-19T06:04:37.972Z,10.32
2023-02-19T06:08:39.584Z,10.28
2023-02-19T06:12:41.122Z,10.25
2023-02-19T06:16:42.851Z,10.25
2023-02-19T06:20:44.479Z,10.28
2023-02-19T06:24:47.130Z,10.28
2023-02-19T06:28:50.420Z,10.28
2023-02-19T06:32:53.791Z,10.31
2023-02-19T06:36:57.227Z,10.31
2023-02-19T06:41:04.409Z,10.34
2023-02-19T06:45:06.410Z,10.36
2023-02-19T06:49:08.246Z,10.39
2023-02-19T06:53:11.525Z,10.43
2023-02-19T06:57:13.097Z,10.47
2023-02-19T07:01:14.712Z,10.51
2023-02-19T07:05:16.269Z,10.54
2023-02-19T07:09:17.762Z,10.58
2023-02-19T07:13:19.342Z,10.63
2023-02-19T07:17:20.918Z,10.68
2023-02-19T07:21:22.543Z,10.72
2023-02-19T07:25:24.084Z,10.72
2023-02-19T07:29:25.616Z,10.73
2023-02-19T07:33:27.365Z,10.76
2023-02-19T07:37:28.958Z,10.81
2023-02-19T07:41:30.589Z,10.84
2023-02-19T07:45:33.059Z,10.86
2023-02-19T07:49:34.588Z,10.90
2023-02-19T07:53:36.157Z,10.91
2023-02-19T07:57:37.676Z,10.93
2023-02-19T08:01:57.999Z,10.98
2023-02-19T08:05:59.569Z,11.03
2023-02-19T08:10:20.274Z,11.05
2023-02-19T08:14:28.642Z,11.08
2023-02-19T08:18:32.806Z,11.16
2023-02-19T08:22:34.320Z,11.19
2023-02-19T08:26:36.533Z,11.17
2023-02-19T08:30:40.047Z,11.23
2023-02-19T08:34:41.835Z,11.28
2023-02-19T08:38:43.395Z,11.36
2023-02-19T08:42:44.999Z,11.44
2023-02-19T08:46:46.478Z,11.46
2023-02-19T08:50:56.338Z,11.49
2023-02-19T08:54:58.259Z,11.56
2023-02-19T08:59:00.574Z,11.59
2023-02-19T09:03:02.385Z,11.62
2023-02-19T09:07:07.641Z,11.63
2023-02-19T09:11:09.740Z,11.85
2023-02-19T09:15:12.395Z,11.98
2023-02-19T09:19:14.014Z,11.97
2023-02-19T09:23:15.558Z,12.08
2023-02-19T09:27:19.440Z,12.11
2023-02-19T09:31:21.209Z,12.25
2023-02-19T09:35:22.908Z,12.33
2023-02-19T09:39:24.444Z,12.36
2023-02-19T09:43:28.395Z,12.40
2023-02-19T09:47:32.773Z,12.40
2023-02-19T09:51:37.313Z,12.41
2023-02-19T09:55:42.510Z,12.43
2023-02-19T10:00:09.649Z,12.43
2023-02-19T10:04:12.356Z,12.51
2023-02-19T10:08:18.619Z,12.49
2023-02-19T10:12:26.736Z,12.55
2023-02-19T10:16:28.790Z,12.63
2023-02-19T10:20:30.517Z,12.70
2023-02-19T10:24:32.139Z,12.73
2023-02-19T10:28:35.920Z,12.73
2023-02-19T10:32:42.128Z,12.85
2023-02-19T10:36:45.237Z,12.92
2023-02-19T10:40:47.368Z,13.01
2023-02-19T10:44:58.495Z,13.12
2023-02-19T10:49:18.725Z,13.12
2023-02-19T10:53:25.637Z,13.14
2023-02-19T10:57:32.567Z,13.21
2023-02-19T11:01:34.115Z,13.28
2023-02-19T11:05:38.108Z,13.21
2023-02-19T11:09:42.884Z,13.19
2023-02-19T11:13:44.550Z,13.36
2023-02-19T11:17:54.076Z,13.39
2023-02-19T11:21:56.575Z,13.29
2023-02-19T11:26:02.934Z,13.27
2023-02-19T11:30:35.634Z,13.25
2023-02-19T11:34:37.758Z,13.27
2023-02-19T11:38:39.373Z,13.29
2023-02-19T11:43:27.764Z,13.29
2023-02-19T11:47:41.408Z,13.38
2023-02-19T11:51:52.680Z,13.59
2023-02-19T11:56:23.590Z,13.63
2023-02-19T12:00:28.047Z,13.46
2023-02-19T12:04:54.344Z,13.46
2023-02-19T12:09:38.794Z,13.55
2023-02-19T12:13:55.707Z,13.69
2023-02-19T12:18:26.353Z,13.86
2023-02-19T12:22:33.450Z,14.21
2023-02-19T12:27:09.108Z,14.17
2023-02-19T12:31:34.964Z,14.09
2023-02-19T12:35:46.397Z,13.75
2023-02-19T12:40:11.728Z,13.69
2023-02-19T12:44:19.646Z,13.61
2023-02-19T12:48:30.740Z,13.55
2023-02-19T12:52:40.310Z,13.51
2023-02-19T12:57:13.513Z,13.62
2023-02-19T13:01:24.638Z,13.69
2023-02-19T13:05:32.085Z,13.71
2023-02-19T13:09:39.084Z,13.63
2023-02-19T13:13:48.300Z,13.63
2023-02-19T13:17:56.955Z,13.71
2023-02-19T13:22:48.317Z,13.69
2023-02-19T13:27:08.569Z,13.69
2023-02-19T13:31:21.917Z,13.73
2023-02-19T13:35:23.612Z,13.75
2023-02-19T13:39:25.425Z,13.75
2023-02-19T13:43:30.329Z,13.76
2023-02-19T13:47:54.875Z,13.75
2023-02-19T13:52:23.718Z,13.79
2023-02-19T13:56:31.472Z,13.73
2023-02-19T14:00:50.184Z,13.79
2023-02-19T14:05:00.411Z,13.65
2023-02-19T14:09:02.080Z,13.71
2023-02-19T14:13:08.108Z,13.66
2023-02-19T14:17:09.619Z,13.59
2023-02-19T14:21:27.894Z,13.61
2023-02-19T14:25:49.290Z,13.59
2023-02-19T14:29:51.275Z,13.62
2023-02-19T14:33:59.420Z,13.57
2023-02-19T14:38:01.689Z,13.48
2023-02-19T14:42:08.269Z,13.36
2023-02-19T14:46:16.160Z,13.35
2023-02-19T14:50:28.398Z,13.29
2023-02-19T14:54:41.483Z,13.31
2023-02-19T14:58:43.143Z,13.36
2023-02-19T15:02:44.756Z,13.39
2023-02-19T15:06:46.482Z,13.39
2023-02-19T15:10:48.324Z,13.36
2023-02-19T15:14:53.164Z,13.38
2023-02-19T15:18:56.327Z,13.31
2023-02-19T15:22:59.588Z,13.28
2023-02-19T15:27:01.151Z,13.28
2023-02-19T15:31:03.274Z,13.27
2023-02-19T15:35:05.218Z,13.22
2023-02-19T15:39:06.809Z,13.17
2023-02-19T15:43:37.314Z,13.13
2023-02-19T15:47:54.177Z,13.09
2023-02-19T15:52:03.668Z,12.94
2023-02-19T15:56:28.271Z,12.88
2023-02-19T16:00:43.562Z,12.80
2023-02-19T16:04:45.738Z,12.69
2023-02-19T16:09:04.480Z,12.67
2023-02-19T16:13:09.527Z,12.56
2023-02-19T16:17:11.036Z,12.51
2023-02-19T16:21:16.598Z,12.25
2023-02-19T16:25:28.096Z,12.07
2023-02-19T16:29:32.253Z,11.97
2023-02-19T16:33:46.481Z,11.93
2023-02-19T16:37:59.584Z,11.85
2023-02-19T16:42:02.168Z,11.81
2023-02-19T16:46:03.803Z,11.84
2023-02-19T16:50:31.001Z,11.79
2023-02-19T16:54:32.533Z,11.70
2023-02-19T16:58:34.093Z,11.64
2023-02-19T17:02:35.648Z,11.59
2023-02-19T17:06:37.835Z,11.56
2023-02-19T17:10:39.401Z,11.56
2023-02-19T17:14:41.522Z,11.54
2023-02-19T17:18:43.122Z,11.46
2023-02-19T17:22:44.732Z,11.39
2023-02-19T17:26:46.333Z,11.44
2023-02-19T17:30:47.930Z,11.42
2023-02-19T17:34:49.711Z,11.39
2023-02-19T17:38:51.394Z,11.42
2023-02-19T17:42:52.957Z,11.42
2023-02-19T17:46:54.542Z,11.42
2023-02-19T17:50:56.389Z,11.44
2023-02-19T17:54:58.119Z,11.45
2023-02-19T17:58:59.914Z,11.46
2023-02-19T18:03:01.524Z,11.46
2023-02-19T18:07:03.367Z,11.46
2023-02-19T18:11:06.937Z,11.45
2023-02-19T18:15:10.919Z,11.46
2023-02-19T18:19:12.691Z,11.45
2023-02-19T18:23:14.556Z,11.44
2023-02-19T18:27:18.429Z,11.41
2023-02-19T18:31:20.073Z,11.36
2023-02-19T18:35:21.758Z,11.38
2023-02-19T18:39:23.515Z,11.28
2023-02-19T18:43:25.156Z,11.20
2023-02-19T18:47:26.943Z,11.20
2023-02-19T18:51:28.594Z,11.13
2023-02-19T18:55:30.182Z,11.13
2023-02-19T18:59:32.133Z,11.12
2023-02-19T19:03:33.812Z,11.09
2023-02-19T19:07:35.386Z,11.08
2023-02-19T19:11:37.931Z,11.06
2023-02-19T19:15:41.344Z,11.05
2023-02-19T19:19:44.675Z,11.06
2023-02-19T19:23:46.233Z,11.08
2023-02-19T19:27:50.354Z,11.08
2023-02-19T19:31:52.228Z,11.08
2023-02-19T19:35:53.923Z,11.06
2023-02-19T19:39:56.367Z,11.03
2023-02-19T19:43:57.990Z,11.02
2023-02-19T19:47:59.644Z,11.03
2023-02-19T19:52:01.387Z,10.99
2023-02-19T19:56:03.268Z,10.99
2023-02-19T20:00:05.343Z,10.95
2023-02-19T20:04:13.862Z,10.94
2023-02-19T20:08:15.953Z,10.93
2023-02-19T20:12:17.999Z,10.93
2023-02-19T20:16:27.474Z,10.87
2023-02-19T20:20:29.666Z,10.75
2023-02-19T20:24:31.611Z,10.60
2023-02-19T20:28:33.374Z,10.55
2023-02-19T20:32:34.936Z,10.55
2023-02-19T20:36:45.994Z,10.60
2023-02-19T20:40:47.582Z,10.63
2023-02-19T20:44:49.226Z,10.66
2023-02-19T20:48:51.952Z,10.62
2023-02-19T20:52:54.795Z,10.60
2023-02-19T20:56:58.723Z,10.62
2023-02-19T21:01:00.239Z,10.62
2023-02-19T21:05:02.011Z,10.58
2023-02-19T21:09:04.864Z,10.63
2023-02-19T21:13:06.533Z,10.63
2023-02-19T21:17:08.119Z,10.65
2023-02-19T21:21:09.838Z,10.63
2023-02-19T21:25:11.558Z,10.60
2023-02-19T21:29:19.069Z,10.55
2023-02-19T21:33:20.758Z,10.51
2023-02-19T21:37:22.554Z,10.49
2023-02-19T21:41:26.399Z,10.46
2023-02-19T21:45:28.003Z,10.47
2023-02-19T21:49:29.720Z,10.46
2023-02-19T21:53:31.318Z,10.42
2023-02-19T21:57:33.061Z,10.39
2023-02-19T22:01:38.866Z,10.43
2023-02-19T22:05:40.447Z,10.42
2023-02-19T22:09:42.028Z,10.42
2023-02-19T22:13:43.621Z,10.39
2023-02-19T22:17:45.749Z,10.42
2023-02-19T22:21:47.430Z,10.43
2023-02-19T22:25:49.051Z,10.46
2023-02-19T22:29:50.933Z,10.46
2023-02-19T22:33:53.481Z,10.44
2023-02-19T22:37:55.150Z,10.42
2023-02-19T22:41:56.658Z,10.42
2023-02-19T22:45:58.209Z,10.43
2023-02-19T22:49:59.751Z,10.43
2023-02-19T22:54:01.519Z,10.46
2023-02-19T22:58:03.073Z,10.47
2023-02-19T23:02:04.646Z,10.47
2023-02-19T23:06:06.211Z,10.49
2023-02-19T23:10:08.228Z,10.47
2023-02-19T23:14:09.866Z,10.49
2023-02-19T23:18:11.433Z,10.46
2023-02-19T23:22:12.953Z,10.44
2023-02-19T23:26:15.764Z,10.42
2023-02-19T23:30:17.756Z,10.42
2023-02-19T23:34:19.569Z,10.38
2023-02-19T23:38:21.126Z,10.35
2023-02-19T23:42:22.655Z,10.32
2023-02-19T23:46:24.232Z,10.29
2023-02-19T23:50:25.889Z,10.26
2023-02-19T23:54:27.471Z,10.22
2023-02-19T23:58:28.953Z,10.17
